sensor_id;sensor_type;location;lat;lon;timestamp;pressure;altitude;pressure_sealevel;temperature;humidity
28008;BME280;15333;50.010;20.020;2023-04-06T00:00:10;99180.91;;;-1.22;77.01
28008;BME280;15333;50.010;20.020;2023-04-06T00:03:32;99183.44;;;-1.19;77.74
28008;BME280;15333;50.010;20.020;2023-04-06T00:06:33;99182.75;;;-1.27;78.31
28008;BME280;15333;50.010;20.020;2023-04-06T00:09:34;99188.22;;;-1.36;78.54
28008;BME280;15333;50.010;20.020;2023-04-06T00:12:35;99183.47;;;-1.60;79.81
28008;BME280;15333;50.010;20.020;2023-04-06T00:15:36;99179.56;;;-1.84;81.42
28008;BME280;15333;50.010;20.020;2023-04-06T00:18:36;99185.56;;;-1.77;81.85
28008;BME280;15333;50.010;20.020;2023-04-06T00:21:37;99181.91;;;-1.70;81.15
28008;BME280;15333;50.010;20.020;2023-04-06T00:24:38;99183.59;;;-1.66;82.56
28008;BME280;15333;50.010;20.020;2023-04-06T00:27:40;99182.88;;;-1.73;81.73
28008;BME280;15333;50.010;20.020;2023-04-06T00:30:41;99177.00;;;-1.85;81.64
28008;BME280;15333;50.010;20.020;2023-04-06T00:33:42;99177.09;;;-1.91;82.98
28008;BME280;15333;50.010;20.020;2023-04-06T00:36:43;99175.56;;;-2.02;83.11
28008;BME280;15333;50.010;20.020;2023-04-06T00:39:44;99168.53;;;-2.00;83.69
28008;BME280;15333;50.010;20.020;2023-04-06T00:42:45;99168.59;;;-2.04;84.32
28008;BME280;15333;50.010;20.020;2023-04-06T00:45:46;99165.13;;;-2.05;84.42
28008;BME280;15333;50.010;20.020;2023-04-06T00:48:47;99159.75;;;-1.99;85.66
28008;BME280;15333;50.010;20.020;2023-04-06T00:51:48;99166.59;;;-1.91;86.05
28008;BME280;15333;50.010;20.020;2023-04-06T00:54:50;99164.03;;;-1.93;86.94
28008;BME280;15333;50.010;20.020;2023-04-06T00:57:53;99158.16;;;-2.06;86.82
28008;BME280;15333;50.010;20.020;2023-04-06T01:00:55;99155.69;;;-2.13;87.19
28008;BME280;15333;50.010;20.020;2023-04-06T01:03:57;99162.59;;;-2.09;87.44
28008;BME280;15333;50.010;20.020;2023-04-06T01:06:59;99156.44;;;-2.07;87.13
28008;BME280;15333;50.010;20.020;2023-04-06T01:10:07;99155.00;;;-2.23;86.43
28008;BME280;15333;50.010;20.020;2023-04-06T01:13:09;99153.09;;;-2.15;87.15
28008;BME280;15333;50.010;20.020;2023-04-06T01:16:31;99158.66;;;-2.33;87.27
28008;BME280;15333;50.010;20.020;2023-04-06T01:19:50;99157.00;;;-2.37;88.66
28008;BME280;15333;50.010;20.020;2023-04-06T01:22:59;99149.91;;;-2.32;88.55
28008;BME280;15333;50.010;20.020;2023-04-06T01:26:00;99148.28;;;-2.39;89.02
28008;BME280;15333;50.010;20.020;2023-04-06T01:29:04;99150.03;;;-2.38;89.85
28008;BME280;15333;50.010;20.020;2023-04-06T01:32:05;99146.91;;;-2.58;89.72
28008;BME280;15333;50.010;20.020;2023-04-06T01:35:10;99146.28;;;-2.25;89.30
28008;BME280;15333;50.010;20.020;2023-04-06T01:38:18;99135.47;;;-2.07;86.45
28008;BME280;15333;50.010;20.020;2023-04-06T01:41:22;99134.72;;;-2.13;86.83
28008;BME280;15333;50.010;20.020;2023-04-06T01:44:26;99137.56;;;-2.25;87.28
28008;BME280;15333;50.010;20.020;2023-04-06T01:47:38;99141.50;;;-2.49;89.32
28008;BME280;15333;50.010;20.020;2023-04-06T01:50:40;99147.00;;;-2.64;89.58
28008;BME280;15333;50.010;20.020;2023-04-06T01:53:42;99134.16;;;-2.78;90.20
28008;BME280;15333;50.010;20.020;2023-04-06T01:56:43;99133.94;;;-2.66;89.71
28008;BME280;15333;50.010;20.020;2023-04-06T01:59:59;99143.75;;;-2.79;90.70
28008;BME280;15333;50.010;20.020;2023-04-06T02:03:14;99140.94;;;-2.66;90.62
28008;BME280;15333;50.010;20.020;2023-04-06T02:06:16;99136.53;;;-2.18;89.77
28008;BME280;15333;50.010;20.020;2023-04-06T02:09:18;99126.63;;;-2.03;87.93
28008;BME280;15333;50.010;20.020;2023-04-06T02:12:19;99124.97;;;-2.07;87.68
28008;BME280;15333;50.010;20.020;2023-04-06T02:15:20;99120.59;;;-2.06;86.35
28008;BME280;15333;50.010;20.020;2023-04-06T02:18:22;99130.22;;;-2.07;87.41
28008;BME280;15333;50.010;20.020;2023-04-06T02:21:22;99119.03;;;-2.16;87.46
28008;BME280;15333;50.010;20.020;2023-04-06T02:24:24;99121.56;;;-2.12;87.01
28008;BME280;15333;50.010;20.020;2023-04-06T02:27:24;99123.31;;;-2.12;87.17
28008;BME280;15333;50.010;20.020;2023-04-06T02:30:26;99116.16;;;-2.03;87.22
28008;BME280;15333;50.010;20.020;2023-04-06T02:33:27;99112.69;;;-2.05;85.63
28008;BME280;15333;50.010;20.020;2023-04-06T02:36:28;99125.03;;;-2.10;85.93
28008;BME280;15333;50.010;20.020;2023-04-06T02:39:28;99125.06;;;-2.13;85.98
28008;BME280;15333;50.010;20.020;2023-04-06T02:42:30;99125.03;;;-2.11;86.08
28008;BME280;15333;50.010;20.020;2023-04-06T02:45:31;99127.78;;;-2.17;87.16
28008;BME280;15333;50.010;20.020;2023-04-06T02:48:35;99126.81;;;-2.12;86.17
28008;BME280;15333;50.010;20.020;2023-04-06T02:51:37;99127.69;;;-2.13;86.77
28008;BME280;15333;50.010;20.020;2023-04-06T02:55:05;99123.50;;;-2.21;87.48
28008;BME280;15333;50.010;20.020;2023-04-06T02:58:08;99130.50;;;-2.22;87.02
28008;BME280;15333;50.010;20.020;2023-04-06T03:01:19;99129.78;;;-2.28;88.42
28008;BME280;15333;50.010;20.020;2023-04-06T03:04:23;99125.41;;;-2.28;87.31
28008;BME280;15333;50.010;20.020;2023-04-06T03:07:27;99132.41;;;-2.30;87.78
28008;BME280;15333;50.010;20.020;2023-04-06T03:10:29;99125.44;;;-2.31;88.13
28008;BME280;15333;50.010;20.020;2023-04-06T03:13:30;99136.75;;;-2.29;87.94
28008;BME280;15333;50.010;20.020;2023-04-06T03:16:32;99129.03;;;-2.35;88.42
28008;BME280;15333;50.010;20.020;2023-04-06T03:19:35;99126.56;;;-2.44;88.05
28008;BME280;15333;50.010;20.020;2023-04-06T03:22:37;99128.28;;;-2.43;88.53
28008;BME280;15333;50.010;20.020;2023-04-06T03:25:39;99135.41;;;-2.51;88.99
28008;BME280;15333;50.010;20.020;2023-04-06T03:28:46;99134.81;;;-2.65;88.88
28008;BME280;15333;50.010;20.020;2023-04-06T03:31:47;99134.81;;;-2.65;88.30
28008;BME280;15333;50.010;20.020;2023-04-06T03:35:06;99134.72;;;-2.62;89.17
28008;BME280;15333;50.010;20.020;2023-04-06T03:38:07;99144.28;;;-2.58;88.65
28008;BME280;15333;50.010;20.020;2023-04-06T03:41:08;99144.19;;;-2.54;88.20
28008;BME280;15333;50.010;20.020;2023-04-06T03:44:09;99144.94;;;-2.47;87.17
28008;BME280;15333;50.010;20.020;2023-04-06T03:47:11;99142.56;;;-2.61;88.21
28008;BME280;15333;50.010;20.020;2023-04-06T03:50:12;99139.16;;;-2.66;88.93
28008;BME280;15333;50.010;20.020;2023-04-06T03:53:13;99134.94;;;-2.74;90.37
28008;BME280;15333;50.010;20.020;2023-04-06T03:56:14;99130.69;;;-2.80;91.06
28008;BME280;15333;50.010;20.020;2023-04-06T03:59:15;99140.19;;;-2.74;89.90
28008;BME280;15333;50.010;20.020;2023-04-06T04:02:16;99145.56;;;-2.84;91.57
28008;BME280;15333;50.010;20.020;2023-04-06T04:05:18;99133.22;;;-2.77;91.14
28008;BME280;15333;50.010;20.020;2023-04-06T04:08:19;99138.63;;;-2.85;92.79
28008;BME280;15333;50.010;20.020;2023-04-06T04:11:19;99138.66;;;-2.88;93.13
28008;BME280;15333;50.010;20.020;2023-04-06T04:14:27;99140.44;;;-2.90;94.61
28008;BME280;15333;50.010;20.020;2023-04-06T04:17:28;99142.03;;;-2.80;93.71
28008;BME280;15333;50.010;20.020;2023-04-06T04:20:29;99142.91;;;-2.81;94.88
28008;BME280;15333;50.010;20.020;2023-04-06T04:23:30;99135.91;;;-2.80;95.61
28008;BME280;15333;50.010;20.020;2023-04-06T04:26:31;99138.53;;;-2.79;94.96
28008;BME280;15333;50.010;20.020;2023-04-06T04:29:32;99132.09;;;-2.62;95.51
28008;BME280;15333;50.010;20.020;2023-04-06T04:32:38;99139.88;;;-2.56;94.64
28008;BME280;15333;50.010;20.020;2023-04-06T04:35:42;99132.66;;;-2.42;92.56
28008;BME280;15333;50.010;20.020;2023-04-06T04:38:45;99130.63;;;-2.28;89.49
28008;BME280;15333;50.010;20.020;2023-04-06T04:41:47;99127.69;;;-2.13;88.19
28008;BME280;15333;50.010;20.020;2023-04-06T04:44:49;99126.63;;;-2.03;86.14
28008;BME280;15333;50.010;20.020;2023-04-06T04:47:55;99127.25;;;-1.90;85.60
28008;BME280;15333;50.010;20.020;2023-04-06T04:51:00;99119.09;;;-1.76;84.04
28008;BME280;15333;50.010;20.020;2023-04-06T04:54:09;99125.75;;;-1.60;84.13
28008;BME280;15333;50.010;20.020;2023-04-06T04:57:11;99127.06;;;-1.41;83.21
28008;BME280;15333;50.010;20.020;2023-04-06T05:00:17;99128.75;;;-1.37;80.63
28008;BME280;15333;50.010;20.020;2023-04-06T05:03:23;99126.72;;;-1.26;80.80
28008;BME280;15333;50.010;20.020;2023-04-06T05:06:35;99121.25;;;-1.15;79.99
28008;BME280;15333;50.010;20.020;2023-04-06T05:09:36;99119.38;;;-1.11;78.11
28008;BME280;15333;50.010;20.020;2023-04-06T05:12:37;99117.81;;;-1.19;77.70
28008;BME280;15333;50.010;20.020;2023-04-06T05:15:43;99121.19;;;-1.13;77.95
28008;BME280;15333;50.010;20.020;2023-04-06T05:19:13;99115.88;;;-1.10;77.86
28008;BME280;15333;50.010;20.020;2023-04-06T05:22:18;99119.06;;;-0.98;76.34
28008;BME280;15333;50.010;20.020;2023-04-06T05:25:25;99116.78;;;-0.76;76.04
28008;BME280;15333;50.010;20.020;2023-04-06T05:28:29;99115.41;;;-0.92;75.35
28008;BME280;15333;50.010;20.020;2023-04-06T05:31:31;99123.75;;;-0.75;74.60
28008;BME280;15333;50.010;20.020;2023-04-06T05:34:33;99119.31;;;-0.71;75.34
28008;BME280;15333;50.010;20.020;2023-04-06T05:37:38;99117.78;;;-0.48;74.62
28008;BME280;15333;50.010;20.020;2023-04-06T05:40:40;99113.59;;;-0.55;74.36
28008;BME280;15333;50.010;20.020;2023-04-06T05:43:45;99110.09;;;-0.55;73.41
28008;BME280;15333;50.010;20.020;2023-04-06T05:46:47;99116.16;;;-0.52;74.06
28008;BME280;15333;50.010;20.020;2023-04-06T05:49:50;99114.34;;;-0.50;74.03
28008;BME280;15333;50.010;20.020;2023-04-06T05:52:59;99108.38;;;-0.22;72.61
28008;BME280;15333;50.010;20.020;2023-04-06T05:56:06;99110.47;;;-0.04;70.65
28008;BME280;15333;50.010;20.020;2023-04-06T05:59:07;99108.28;;;-0.19;71.87
28008;BME280;15333;50.010;20.020;2023-04-06T06:02:08;99114.78;;;0.00;70.95
28008;BME280;15333;50.010;20.020;2023-04-06T06:05:14;99109.50;;;0.29;69.97
28008;BME280;15333;50.010;20.020;2023-04-06T06:08:16;99112.75;;;0.08;68.84
28008;BME280;15333;50.010;20.020;2023-04-06T06:11:18;99105.78;;;0.36;68.67
28008;BME280;15333;50.010;20.020;2023-04-06T06:14:18;99106.63;;;0.38;67.56
28008;BME280;15333;50.010;20.020;2023-04-06T06:17:20;99099.91;;;0.28;68.42
28008;BME280;15333;50.010;20.020;2023-04-06T06:20:22;99109.50;;;0.59;67.15
28008;BME280;15333;50.010;20.020;2023-04-06T06:23:23;99114.66;;;0.63;66.94
28008;BME280;15333;50.010;20.020;2023-04-06T06:26:24;99109.44;;;0.62;66.06
28008;BME280;15333;50.010;20.020;2023-04-06T06:29:25;99109.81;;;0.50;66.89
28008;BME280;15333;50.010;20.020;2023-04-06T06:32:26;99103.94;;;0.69;65.56
28008;BME280;15333;50.010;20.020;2023-04-06T06:35:28;99108.66;;;0.58;65.16
28008;BME280;15333;50.010;20.020;2023-04-06T06:38:29;99102.41;;;0.33;66.05
28008;BME280;15333;50.010;20.020;2023-04-06T06:41:31;99106.81;;;0.32;66.72
28008;BME280;15333;50.010;20.020;2023-04-06T06:44:32;99104.34;;;0.26;65.35
28008;BME280;15333;50.010;20.020;2023-04-06T06:47:33;99108.06;;;0.49;65.36
28008;BME280;15333;50.010;20.020;2023-04-06T06:50:34;99108.78;;;0.24;65.79
28008;BME280;15333;50.010;20.020;2023-04-06T06:53:35;99107.47;;;0.39;65.51
28008;BME280;15333;50.010;20.020;2023-04-06T06:56:36;99108.59;;;0.30;66.25
28008;BME280;15333;50.010;20.020;2023-04-06T06:59:38;99105.00;;;0.34;65.53
28008;BME280;15333;50.010;20.020;2023-04-06T07:02:39;99102.88;;;0.46;66.22
28008;BME280;15333;50.010;20.020;2023-04-06T07:05:47;99111.63;;;1.03;64.48
28008;BME280;15333;50.010;20.020;2023-04-06T07:08:53;99101.50;;;0.91;64.04
28008;BME280;15333;50.010;20.020;2023-04-06T07:11:54;99111.16;;;0.91;64.33
28008;BME280;15333;50.010;20.020;2023-04-06T07:14:56;99100.22;;;0.75;63.55
28008;BME280;15333;50.010;20.020;2023-04-06T07:17:57;99107.34;;;0.71;64.70
28008;BME280;15333;50.010;20.020;2023-04-06T07:21:00;99118.81;;;0.70;65.02
28008;BME280;15333;50.010;20.020;2023-04-06T07:24:01;99109.91;;;0.74;63.52
28008;BME280;15333;50.010;20.020;2023-04-06T07:27:02;99114.78;;;0.59;63.79
28008;BME280;15333;50.010;20.020;2023-04-06T07:30:03;99128.97;;;0.55;64.54
28008;BME280;15333;50.010;20.020;2023-04-06T07:33:05;99104.78;;;0.70;64.70
28008;BME280;15333;50.010;20.020;2023-04-06T07:36:08;99112.50;;;0.76;64.04
28008;BME280;15333;50.010;20.020;2023-04-06T07:39:11;99126.84;;;0.66;63.62
28008;BME280;15333;50.010;20.020;2023-04-06T07:42:14;99111.63;;;1.03;62.96
28008;BME280;15333;50.010;20.020;2023-04-06T07:45:15;99110.38;;;0.87;63.06
28008;BME280;15333;50.010;20.020;2023-04-06T07:48:17;99111.47;;;0.80;63.43
28008;BME280;15333;50.010;20.020;2023-04-06T07:51:19;99094.88;;;0.78;63.25
28008;BME280;15333;50.010;20.020;2023-04-06T07:54:21;99104.69;;;0.73;62.41
28008;BME280;15333;50.010;20.020;2023-04-06T07:57:22;99099.97;;;0.84;62.33
28008;BME280;15333;50.010;20.020;2023-04-06T08:00:23;99113.16;;;1.10;61.58
28008;BME280;15333;50.010;20.020;2023-04-06T08:03:24;99085.63;;;1.19;61.63
28008;BME280;15333;50.010;20.020;2023-04-06T08:06:26;99091.44;;;1.55;59.78
28008;BME280;15333;50.010;20.020;2023-04-06T08:09:26;99083.75;;;1.49;60.44
28008;BME280;15333;50.010;20.020;2023-04-06T08:12:28;99076.69;;;1.23;61.04
28008;BME280;15333;50.010;20.020;2023-04-06T08:15:29;99074.91;;;1.50;59.61
28008;BME280;15333;50.010;20.020;2023-04-06T08:18:30;99076.22;;;1.63;59.84
28008;BME280;15333;50.010;20.020;2023-04-06T08:21:30;99068.56;;;1.80;59.57
28008;BME280;15333;50.010;20.020;2023-04-06T08:24:31;99062.50;;;2.02;59.18
28008;BME280;15333;50.010;20.020;2023-04-06T08:27:32;99074.94;;;2.21;57.71
28008;BME280;15333;50.010;20.020;2023-04-06T08:30:33;99068.59;;;2.27;57.04
28008;BME280;15333;50.010;20.020;2023-04-06T08:33:34;99067.31;;;1.90;58.81
28008;BME280;15333;50.010;20.020;2023-04-06T08:36:37;99072.00;;;1.82;58.21
28008;BME280;15333;50.010;20.020;2023-04-06T08:39:37;99062.41;;;2.05;57.82
28008;BME280;15333;50.010;20.020;2023-04-06T08:42:44;99053.88;;;2.43;57.50
28008;BME280;15333;50.010;20.020;2023-04-06T08:45:47;99058.38;;;2.18;57.38
28008;BME280;15333;50.010;20.020;2023-04-06T08:48:48;99059.00;;;2.01;57.20
28008;BME280;15333;50.010;20.020;2023-04-06T08:51:50;99045.19;;;2.18;57.71
28008;BME280;15333;50.010;20.020;2023-04-06T08:54:52;99041.72;;;2.39;56.79
28008;BME280;15333;50.010;20.020;2023-04-06T08:57:54;99045.97;;;2.87;55.64
28008;BME280;15333;50.010;20.020;2023-04-06T09:00:56;99042.78;;;2.12;56.81
28008;BME280;15333;50.010;20.020;2023-04-06T09:03:59;99046.19;;;2.14;57.44
28008;BME280;15333;50.010;20.020;2023-04-06T09:07:01;99040.66;;;1.73;58.09
28008;BME280;15333;50.010;20.020;2023-04-06T09:10:03;99046.63;;;1.78;58.48
28008;BME280;15333;50.010;20.020;2023-04-06T09:13:05;99044.13;;;1.75;59.14
28008;BME280;15333;50.010;20.020;2023-04-06T09:16:06;99043.09;;;2.03;59.46
28008;BME280;15333;50.010;20.020;2023-04-06T09:19:08;99048.56;;;1.73;59.21
28008;BME280;15333;50.010;20.020;2023-04-06T09:22:08;99036.66;;;1.86;59.01
28008;BME280;15333;50.010;20.020;2023-04-06T09:25:18;99039.28;;;1.86;58.57
28008;BME280;15333;50.010;20.020;2023-04-06T09:28:20;99043.78;;;1.84;59.43
28008;BME280;15333;50.010;20.020;2023-04-06T09:31:26;99033.56;;;2.22;58.78
28008;BME280;15333;50.010;20.020;2023-04-06T09:34:27;99043.47;;;1.69;59.63
28008;BME280;15333;50.010;20.020;2023-04-06T09:37:28;99024.75;;;1.76;60.31
28008;BME280;15333;50.010;20.020;2023-04-06T09:40:29;99031.53;;;1.58;59.94
28008;BME280;15333;50.010;20.020;2023-04-06T09:43:30;99022.16;;;1.75;59.57
28008;BME280;15333;50.010;20.020;2023-04-06T09:46:33;99020.97;;;1.83;60.40
28008;BME280;15333;50.010;20.020;2023-04-06T09:49:35;99031.78;;;1.76;60.55
28008;BME280;15333;50.010;20.020;2023-04-06T09:52:50;99023.00;;;1.75;61.62
28008;BME280;15333;50.010;20.020;2023-04-06T09:55:55;99023.47;;;1.86;61.59
28008;BME280;15333;50.010;20.020;2023-04-06T09:59:03;99032.78;;;1.72;63.37
28008;BME280;15333;50.010;20.020;2023-04-06T10:02:08;99021.63;;;1.88;63.74
28008;BME280;15333;50.010;20.020;2023-04-06T10:05:20;99024.75;;;1.76;65.80
28008;BME280;15333;50.010;20.020;2023-04-06T10:08:24;99037.88;;;1.53;66.26
28008;BME280;15333;50.010;20.020;2023-04-06T10:11:28;99027.38;;;1.76;66.92
28008;BME280;15333;50.010;20.020;2023-04-06T10:14:34;99023.75;;;1.79;67.95
28008;BME280;15333;50.010;20.020;2023-04-06T10:17:38;99027.59;;;1.93;67.87
28008;BME280;15333;50.010;20.020;2023-04-06T10:20:43;99028.50;;;1.69;68.08
28008;BME280;15333;50.010;20.020;2023-04-06T10:23:48;99028.59;;;1.66;69.43
28008;BME280;15333;50.010;20.020;2023-04-06T10:27:01;99046.91;;;0.95;73.53
28008;BME280;15333;50.010;20.020;2023-04-06T10:30:06;99036.81;;;0.81;78.13
28008;BME280;15333;50.010;20.020;2023-04-06T10:33:18;99037.63;;;0.83;80.70
28008;BME280;15333;50.010;20.020;2023-04-06T10:36:33;99035.47;;;0.42;83.00
28008;BME280;15333;50.010;20.020;2023-04-06T10:39:45;99018.22;;;0.31;86.63
28008;BME280;15333;50.010;20.020;2023-04-06T10:42:46;99024.03;;;0.43;86.09
28008;BME280;15333;50.010;20.020;2023-04-06T10:45:59;99023.16;;;0.70;88.09
28008;BME280;15333;50.010;20.020;2023-04-06T10:49:10;99012.69;;;1.20;85.63
28008;BME280;15333;50.010;20.020;2023-04-06T10:52:12;99006.56;;;1.44;84.62
28008;BME280;15333;50.010;20.020;2023-04-06T10:55:15;99012.63;;;1.46;83.35
28008;BME280;15333;50.010;20.020;2023-04-06T10:58:16;99009.91;;;1.49;81.97
28008;BME280;15333;50.010;20.020;2023-04-06T11:01:22;99007.41;;;1.44;82.54
28008;BME280;15333;50.010;20.020;2023-04-06T11:04:24;98993.63;;;1.61;82.82
28008;BME280;15333;50.010;20.020;2023-04-06T11:07:26;99001.63;;;1.35;82.92
28008;BME280;15333;50.010;20.020;2023-04-06T11:10:28;99002.47;;;0.84;85.63
28008;BME280;15333;50.010;20.020;2023-04-06T11:13:57;99001.88;;;0.76;87.27
28008;BME280;15333;50.010;20.020;2023-04-06T11:16:58;99004.97;;;0.62;87.54
28008;BME280;15333;50.010;20.020;2023-04-06T11:19:59;98997.47;;;0.76;89.46
28008;BME280;15333;50.010;20.020;2023-04-06T11:23:01;98995.88;;;0.97;89.44
28008;BME280;15333;50.010;20.020;2023-04-06T11:26:02;98990.31;;;1.06;90.31
28008;BME280;15333;50.010;20.020;2023-04-06T11:29:04;98992.22;;;1.01;91.53
28008;BME280;15333;50.010;20.020;2023-04-06T11:32:05;98997.50;;;0.75;93.26
28008;BME280;15333;50.010;20.020;2023-04-06T11:35:21;98992.69;;;0.61;95.08
28008;BME280;15333;50.010;20.020;2023-04-06T11:38:23;98999.09;;;0.53;97.27
28008;BME280;15333;50.010;20.020;2023-04-06T11:41:23;98998.91;;;0.59;99.42
28008;BME280;15333;50.010;20.020;2023-04-06T11:44:31;98993.09;;;0.49;100.00
28008;BME280;15333;50.010;20.020;2023-04-06T11:47:34;98992.78;;;0.58;100.00
28008;BME280;15333;50.010;20.020;2023-04-06T11:50:35;98989.59;;;0.75;100.00
28008;BME280;15333;50.010;20.020;2023-04-06T11:53:46;98989.97;;;0.91;100.00
28008;BME280;15333;50.010;20.020;2023-04-06T11:56:47;98991.41;;;0.73;100.00
28008;BME280;15333;50.010;20.020;2023-04-06T11:59:47;98986.75;;;0.81;100.00
28008;BME280;15333;50.010;20.020;2023-04-06T12:02:49;98972.94;;;0.74;100.00
28008;BME280;15333;50.010;20.020;2023-04-06T12:05:50;98975.25;;;0.57;100.00
28008;BME280;15333;50.010;20.020;2023-04-06T12:08:51;98968.69;;;0.70;100.00
28008;BME280;15333;50.010;20.020;2023-04-06T12:11:52;98965.09;;;0.73;100.00
28008;BME280;15333;50.010;20.020;2023-04-06T12:14:53;98970.84;;;0.58;100.00
28008;BME280;15333;50.010;20.020;2023-04-06T12:17:53;98977.13;;;0.80;100.00
28008;BME280;15333;50.010;20.020;2023-04-06T12:20:54;98979.31;;;0.67;100.00
28008;BME280;15333;50.010;20.020;2023-04-06T12:23:56;98981.47;;;0.83;100.00
28008;BME280;15333;50.010;20.020;2023-04-06T12:26:57;98970.97;;;0.81;100.00
28008;BME280;15333;50.010;20.020;2023-04-06T12:29:58;98967.59;;;0.77;100.00
28008;BME280;15333;50.010;20.020;2023-04-06T12:32:59;98962.72;;;0.92;100.00
28008;BME280;15333;50.010;20.020;2023-04-06T12:36:00;98957.91;;;0.78;100.00
28008;BME280;15333;50.010;20.020;2023-04-06T12:39:01;98957.50;;;0.90;100.00
28008;BME280;15333;50.010;20.020;2023-04-06T12:42:03;98957.78;;;0.81;100.00
28008;BME280;15333;50.010;20.020;2023-04-06T12:45:04;98951.13;;;0.71;100.00
28008;BME280;15333;50.010;20.020;2023-04-06T12:48:05;98950.00;;;0.52;100.00
28008;BME280;15333;50.010;20.020;2023-04-06T12:51:06;98947.19;;;0.30;100.00
28008;BME280;15333;50.010;20.020;2023-04-06T12:54:07;98956.00;;;0.57;100.00
28008;BME280;15333;50.010;20.020;2023-04-06T12:57:08;98955.16;;;0.55;100.00
28008;BME280;15333;50.010;20.020;2023-04-06T13:00:09;98949.50;;;0.67;100.00
28008;BME280;15333;50.010;20.020;2023-04-06T13:03:10;98945.53;;;0.80;100.00
28008;BME280;15333;50.010;20.020;2023-04-06T13:06:11;98938.66;;;1.01;100.00
28008;BME280;15333;50.010;20.020;2023-04-06T13:09:13;98927.16;;;1.03;100.00
28008;BME280;15333;50.010;20.020;2023-04-06T13:12:15;98926.47;;;0.98;100.00
28008;BME280;15333;50.010;20.020;2023-04-06T13:15:16;98924.25;;;0.86;100.00
28008;BME280;15333;50.010;20.020;2023-04-06T13:18:17;98924.25;;;0.86;100.00
28008;BME280;15333;50.010;20.020;2023-04-06T13:21:18;98923.75;;;0.75;100.00
28008;BME280;15333;50.010;20.020;2023-04-06T13:24:21;98924.66;;;0.74;100.00
28008;BME280;15333;50.010;20.020;2023-04-06T13:27:22;98907.88;;;0.78;100.00
28008;BME280;15333;50.010;20.020;2023-04-06T13:30:23;98916.19;;;0.91;100.00
28008;BME280;15333;50.010;20.020;2023-04-06T13:33:24;98917.97;;;0.90;100.00
28008;BME280;15333;50.010;20.020;2023-04-06T13:36:25;98915.66;;;0.81;100.00
28008;BME280;15333;50.010;20.020;2023-04-06T13:39:27;98915.84;;;0.75;100.00
28008;BME280;15333;50.010;20.020;2023-04-06T13:42:28;98919.41;;;0.74;100.00
28008;BME280;15333;50.010;20.020;2023-04-06T13:45:29;98919.69;;;0.65;100.00
28008;BME280;15333;50.010;20.020;2023-04-06T13:48:30;98916.25;;;0.89;100.00
28008;BME280;15333;50.010;20.020;2023-04-06T13:51:31;98913.28;;;0.98;100.00
28008;BME280;15333;50.010;20.020;2023-04-06T13:54:32;98901.66;;;0.79;100.00
28008;BME280;15333;50.010;20.020;2023-04-06T13:57:33;98910.16;;;0.87;100.00
28008;BME280;15333;50.010;20.020;2023-04-06T14:00:34;98918.78;;;0.92;100.00
28008;BME280;15333;50.010;20.020;2023-04-06T14:03:36;98912.09;;;0.82;100.00
28008;BME280;15333;50.010;20.020;2023-04-06T14:06:37;98905.50;;;0.95;100.00
28008;BME280;15333;50.010;20.020;2023-04-06T14:09:38;98908.25;;;0.92;100.00
28008;BME280;15333;50.010;20.020;2023-04-06T14:12:43;98914.44;;;1.14;100.00
28008;BME280;15333;50.010;20.020;2023-04-06T14:15:45;98915.03;;;0.99;100.00
28008;BME280;15333;50.010;20.020;2023-04-06T14:18:46;98923.63;;;1.04;100.00
28008;BME280;15333;50.010;20.020;2023-04-06T14:21:47;98927.06;;;1.06;100.00
28008;BME280;15333;50.010;20.020;2023-04-06T14:24:49;98916.72;;;1.00;100.00
28008;BME280;15333;50.010;20.020;2023-04-06T14:27:50;98915.97;;;0.97;100.00
28008;BME280;15333;50.010;20.020;2023-04-06T14:30:51;98918.75;;;1.17;100.00
28008;BME280;15333;50.010;20.020;2023-04-06T14:33:52;98924.06;;;0.92;100.00
28008;BME280;15333;50.010;20.020;2023-04-06T14:36:53;98910.72;;;0.97;100.00
28008;BME280;15333;50.010;20.020;2023-04-06T14:39:54;98918.44;;;1.01;100.00
28008;BME280;15333;50.010;20.020;2023-04-06T14:42:55;98919.56;;;0.94;100.00
28008;BME280;15333;50.010;20.020;2023-04-06T14:46:01;98927.59;;;0.91;100.00
28008;BME280;15333;50.010;20.020;2023-04-06T14:49:02;98915.03;;;0.99;100.00
28008;BME280;15333;50.010;20.020;2023-04-06T14:52:04;98918.56;;;0.98;100.00
28008;BME280;15333;50.010;20.020;2023-04-06T14:55:05;98915.44;;;0.87;100.00
28008;BME280;15333;50.010;20.020;2023-04-06T14:58:06;98920.06;;;1.05;100.00
28008;BME280;15333;50.010;20.020;2023-04-06T15:01:07;98914.16;;;0.99;100.00
28008;BME280;15333;50.010;20.020;2023-04-06T15:04:09;98920.28;;;0.99;100.00
28008;BME280;15333;50.010;20.020;2023-04-06T15:07:09;98915.97;;;0.97;100.00
28008;BME280;15333;50.010;20.020;2023-04-06T15:10:11;98918.22;;;1.07;100.00
28008;BME280;15333;50.010;20.020;2023-04-06T15:13:12;98913.22;;;1.25;100.00
28008;BME280;15333;50.010;20.020;2023-04-06T15:16:13;98913.81;;;0.83;100.00
28008;BME280;15333;50.010;20.020;2023-04-06T15:19:15;98909.41;;;1.08;100.00
28008;BME280;15333;50.010;20.020;2023-04-06T15:22:16;98909.16;;;0.91;100.00
28008;BME280;15333;50.010;20.020;2023-04-06T15:25:17;98918.88;;;0.89;100.00
28008;BME280;15333;50.010;20.020;2023-04-06T15:28:18;98914.91;;;1.02;100.00
28008;BME280;15333;50.010;20.020;2023-04-06T15:31:19;98910.28;;;1.09;100.00
28008;BME280;15333;50.010;20.020;2023-04-06T15:34:23;98914.34;;;1.17;100.00
28008;BME280;15333;50.010;20.020;2023-04-06T15:37:23;98914.69;;;1.08;100.00
28008;BME280;15333;50.010;20.020;2023-04-06T15:40:24;98912.09;;;1.07;100.00
28008;BME280;15333;50.010;20.020;2023-04-06T15:43:25;98911.56;;;0.97;100.00
28008;BME280;15333;50.010;20.020;2023-04-06T15:46:26;98918.81;;;1.15;100.00
28008;BME280;15333;50.010;20.020;2023-04-06T15:49:27;98911.13;;;1.09;100.00
28008;BME280;15333;50.010;20.020;2023-04-06T15:52:28;98915.59;;;1.07;100.00
28008;BME280;15333;50.010;20.020;2023-04-06T15:55:29;98924.38;;;0.83;100.00
28008;BME280;15333;50.010;20.020;2023-04-06T15:58:32;98926.00;;;0.61;100.00